Uhta, Russia
Current Conditions -  °F | °C
As of 10:00 PM on Sunday 21 Dec 2014 (Local Time) from UUYY Reporting Station
Snow Showers Snow Showers  
Wind Chill: 24°   Ceiling: 1400
Heat Index: 32°   Visibility: 2.2mi
Dew Point: 30°   Wind: 9mph
Humidity: 93%   Direction: 210°SSW
Pressure: 29.29"   Gusts: 16mph
Location:  63.56°N, 53.69°E
Report Text: UUYY 211900Z 21004G07MPS 3600 -SHSN SCT007 BKN014CB OVC066M00/M01 Q0992 TEMPO 1000 SHSN 19490235 RMK QFE736/0981
Loading
Personal Weather Stations






























Interactive Weather Map New forecast layout! Learn more

10-Day Weather Forecast

Advertisements
Track Severe Weather on mobile